Terminal Aerodrome Forecast
Issued by NWS

Home | Current Version | Previous Version | Text Only | Print | Product List | Glossary On
Versions: 1 2 3 4 5 6 7 8 9 10 11 12
000
FTUS46 KSEW 252334
TAFBLI
TAF
KBLI 252334Z 2600/2624 17012KT P6SM SKC
     FM260600 17012KT P6SM OVC035
     FM261000 17014G20KT P6SM OVC020
     FM262300 17012G18KT P6SM OVC035=

USA.gov is the U.S. government's official web portal to all federal, state and local government web resources and services.